createdAt,value
2018-03-31T00:01:24.744Z,8.47
2018-03-31T00:03:52.774Z,7.37
2018-03-31T00:06:19.795Z,7.73
2018-03-31T00:08:47.602Z,11.90
2018-03-31T00:11:14.706Z,10.87
2018-03-31T00:13:41.743Z,13.20
2018-03-31T00:16:09.020Z,12.53
2018-03-31T00:18:36.803Z,11.63
2018-03-31T00:21:03.792Z,8.73
2018-03-31T00:23:30.836Z,10.70
2018-03-31T00:25:57.976Z,10.53
2018-03-31T00:28:24.995Z,10.57
2018-03-31T00:30:52.220Z,10.47
2018-03-31T00:33:19.841Z,7.83
2018-03-31T00:35:47.315Z,13.00
2018-03-31T00:38:14.459Z,10.63
2018-03-31T00:40:41.498Z,11.47
2018-03-31T00:43:08.692Z,11.17
2018-03-31T00:45:36.359Z,11.43
2018-03-31T00:48:04.196Z,9.60
2018-03-31T00:50:31.991Z,9.70
2018-03-31T00:52:59.771Z,10.97
2018-03-31T00:55:26.788Z,9.53
2018-03-31T00:57:53.839Z,9.77
2018-03-31T01:00:20.865Z,12.53
2018-03-31T01:02:47.995Z,7.23
2018-03-31T01:05:15.364Z,10.33
2018-03-31T01:07:42.678Z,11.70
2018-03-31T01:10:09.799Z,12.10
2018-03-31T01:12:36.807Z,11.33
2018-03-31T01:15:03.859Z,11.87
2018-03-31T01:17:30.950Z,6.53
2018-03-31T01:19:58.056Z,12.20
2018-03-31T01:22:25.252Z,10.30
2018-03-31T01:24:53.245Z,12.30
2018-03-31T01:27:20.263Z,10.73
2018-03-31T01:29:48.035Z,11.37
2018-03-31T01:32:15.268Z,11.17
2018-03-31T01:34:43.078Z,12.93
2018-03-31T01:37:10.102Z,10.53
2018-03-31T01:39:37.320Z,7.20
2018-03-31T01:42:04.337Z,12.60
2018-03-31T01:44:31.371Z,10.13
2018-03-31T01:46:58.375Z,7.87
2018-03-31T01:49:26.231Z,11.60
2018-03-31T01:51:53.272Z,12.30
2018-03-31T01:54:20.779Z,10.53
2018-03-31T01:56:47.810Z,11.63
2018-03-31T01:59:14.839Z,13.17
2018-03-31T02:01:41.866Z,11.97
2018-03-31T02:04:09.106Z,12.30
2018-03-31T02:06:36.189Z,10.90
2018-03-31T02:09:03.210Z,11.47
2018-03-31T02:11:30.254Z,11.00
2018-03-31T02:13:57.292Z,8.83
2018-03-31T02:16:24.341Z,12.80
2018-03-31T02:18:51.542Z,13.03
2018-03-31T02:21:19.322Z,8.60
2018-03-31T02:23:46.365Z,13.00
2018-03-31T02:26:13.504Z,10.57
2018-03-31T02:28:41.530Z,11.17
2018-03-31T02:31:08.564Z,13.03
2018-03-31T02:33:35.703Z,9.53
2018-03-31T02:36:02.739Z,8.37
2018-03-31T02:38:29.772Z,13.13
2018-03-31T02:40:57.590Z,12.57
2018-03-31T02:43:24.594Z,10.13
2018-03-31T02:45:51.599Z,7.83
2018-03-31T02:48:18.791Z,9.30
2018-03-31T02:50:45.833Z,11.47
2018-03-31T02:53:12.878Z,10.47
2018-03-31T02:55:40.675Z,12.73
2018-03-31T02:58:07.883Z,8.77
2018-03-31T03:00:35.659Z,8.70
2018-03-31T03:03:03.604Z,11.03
2018-03-31T03:05:30.644Z,9.53
2018-03-31T03:07:57.825Z,8.50
2018-03-31T03:10:24.853Z,12.87
2018-03-31T03:12:51.862Z,9.67
2018-03-31T03:15:18.899Z,9.93
2018-03-31T03:17:46.049Z,12.10
2018-03-31T03:20:13.067Z,11.03
2018-03-31T03:22:40.081Z,11.57
2018-03-31T03:25:07.103Z,8.13
2018-03-31T03:27:34.203Z,9.13
2018-03-31T03:30:02.193Z,8.53
2018-03-31T03:32:29.212Z,11.93
2018-03-31T03:34:57.056Z,9.97
2018-03-31T03:37:24.227Z,10.00
2018-03-31T03:39:51.338Z,12.43
2018-03-31T03:42:18.478Z,11.27
2018-03-31T03:44:45.590Z,12.70
2018-03-31T03:47:13.399Z,9.83
2018-03-31T03:49:40.629Z,9.90
2018-03-31T03:52:07.652Z,10.87
2018-03-31T03:54:34.695Z,13.07
2018-03-31T03:57:01.737Z,11.87
2018-03-31T03:59:28.764Z,12.17
2018-03-31T04:01:55.985Z,9.67
2018-03-31T04:04:23.006Z,12.70
2018-03-31T04:06:50.048Z,11.17
2018-03-31T04:09:17.832Z,8.83
2018-03-31T04:11:45.417Z,12.63
2018-03-31T04:14:12.461Z,11.87
2018-03-31T04:16:39.574Z,12.17
2018-03-31T04:19:07.371Z,10.90
2018-03-31T04:21:34.392Z,12.40
2018-03-31T04:24:01.489Z,8.90
2018-03-31T04:26:28.686Z,11.90
2018-03-31T04:28:56.541Z,12.23
2018-03-31T04:31:23.588Z,11.73
2018-03-31T04:33:51.392Z,11.80
2018-03-31T04:36:18.404Z,12.90
2018-03-31T04:38:45.413Z,12.80
2018-03-31T04:41:12.447Z,11.90
2018-03-31T04:43:39.477Z,8.57
2018-03-31T04:46:06.497Z,11.77
2018-03-31T04:48:33.535Z,9.93
2018-03-31T04:51:00.578Z,12.40
2018-03-31T04:53:27.667Z,11.77
2018-03-31T04:55:54.776Z,10.53
2018-03-31T04:58:21.831Z,10.60
2018-03-31T05:00:48.888Z,10.00
2018-03-31T05:03:15.895Z,7.87
2018-03-31T05:05:43.009Z,11.03
2018-03-31T05:08:11.575Z,11.90
2018-03-31T05:10:39.571Z,9.83
2018-03-31T05:13:06.659Z,13.13
2018-03-31T05:15:33.775Z,11.23
2018-03-31T05:18:00.972Z,10.43
2018-03-31T05:20:28.158Z,12.50
2018-03-31T05:22:55.208Z,9.20
2018-03-31T05:25:22.239Z,12.57
2018-03-31T05:27:49.250Z,10.63
2018-03-31T05:30:16.541Z,8.60
2018-03-31T05:32:43.644Z,13.27
2018-03-31T05:35:10.661Z,11.47
2018-03-31T05:37:37.663Z,13.40
2018-03-31T05:40:04.946Z,11.97
2018-03-31T05:42:31.975Z,10.73
2018-03-31T05:44:59.830Z,13.23
2018-03-31T05:47:26.884Z,12.17
2018-03-31T05:49:54.016Z,11.07
2018-03-31T05:52:21.193Z,8.83
2018-03-31T05:54:48.237Z,10.23
2018-03-31T05:57:15.999Z,13.33
2018-03-31T05:59:43.091Z,12.07
2018-03-31T06:02:10.438Z,11.87
2018-03-31T06:04:37.479Z,13.57
2018-03-31T06:07:04.599Z,13.37
2018-03-31T06:09:32.413Z,8.67
2018-03-31T06:11:59.651Z,11.27
2018-03-31T06:14:26.667Z,12.63
2018-03-31T06:16:54.749Z,10.40
2018-03-31T06:19:21.749Z,9.13
2018-03-31T06:21:48.759Z,12.47
2018-03-31T06:24:15.902Z,12.00
2018-03-31T06:26:43.100Z,11.53
2018-03-31T06:29:10.109Z,12.33
2018-03-31T06:31:37.258Z,10.17
2018-03-31T06:34:04.729Z,12.93
2018-03-31T06:36:32.167Z,11.53
2018-03-31T06:38:59.196Z,14.33
2018-03-31T06:41:26.207Z,12.03
2018-03-31T06:43:53.247Z,9.77
2018-03-31T06:46:20.256Z,13.10
2018-03-31T06:48:47.291Z,16.63
2018-03-31T06:51:14.349Z,15.33
2018-03-31T06:53:41.358Z,9.67
2018-03-31T06:56:08.377Z,12.37
2018-03-31T06:58:35.439Z,13.57
2018-03-31T07:01:02.529Z,16.63
2018-03-31T07:03:29.576Z,12.33
2018-03-31T07:05:56.906Z,15.63
2018-03-31T07:08:23.939Z,17.27
2018-03-31T07:10:50.968Z,11.27
2018-03-31T07:13:18.106Z,13.03
2018-03-31T07:15:45.107Z,8.43
2018-03-31T07:18:12.280Z,17.97
2018-03-31T07:20:39.316Z,17.50
2018-03-31T07:23:06.819Z,10.40
2018-03-31T07:25:33.828Z,18.43
2018-03-31T07:28:01.622Z,16.73
2018-03-31T07:30:28.874Z,12.50
2018-03-31T07:32:55.925Z,18.43
2018-03-31T07:35:22.949Z,20.13
2018-03-31T07:37:49.955Z,19.63
2018-03-31T07:40:17.012Z,20.40
2018-03-31T07:42:44.062Z,19.27
2018-03-31T07:45:11.084Z,18.97
2018-03-31T07:47:38.105Z,20.90
2018-03-31T07:50:05.684Z,19.37
2018-03-31T07:52:32.774Z,21.87
2018-03-31T07:54:59.866Z,13.67
2018-03-31T07:57:26.887Z,18.43
2018-03-31T07:59:54.134Z,18.77
2018-03-31T08:02:21.217Z,22.23
2018-03-31T08:04:48.250Z,15.30
2018-03-31T08:07:15.426Z,23.47
2018-03-31T08:09:42.527Z,21.40
2018-03-31T08:12:10.306Z,22.33
2018-03-31T08:14:37.342Z,21.07
2018-03-31T08:17:04.352Z,27.30
2018-03-31T08:19:31.371Z,20.90
2018-03-31T08:21:58.446Z,17.90
2018-03-31T08:24:25.461Z,24.33
2018-03-31T08:26:52.856Z,19.60
2018-03-31T08:29:19.928Z,25.53
2018-03-31T08:31:46.990Z,16.30
2018-03-31T08:34:14.958Z,24.03
2018-03-31T08:36:42.029Z,17.37
2018-03-31T08:39:09.076Z,24.63
2018-03-31T08:41:36.115Z,25.87
2018-03-31T08:44:03.157Z,24.13
2018-03-31T08:46:30.309Z,25.73
2018-03-31T08:48:57.365Z,26.20
2018-03-31T08:51:24.378Z,23.33
2018-03-31T08:53:51.643Z,18.73
2018-03-31T08:56:18.923Z,26.53
2018-03-31T08:58:46.044Z,18.37
2018-03-31T09:01:13.430Z,22.10
2018-03-31T09:03:40.449Z,24.00
2018-03-31T09:06:07.467Z,26.53
2018-03-31T09:08:34.480Z,27.53
2018-03-31T09:11:01.509Z,24.37
2018-03-31T09:13:28.656Z,32.60
2018-03-31T09:15:55.838Z,26.37
2018-03-31T09:18:22.871Z,26.57
2018-03-31T09:20:49.923Z,22.17
2018-03-31T09:23:16.941Z,26.17
2018-03-31T09:25:44.918Z,20.37
2018-03-31T09:28:11.962Z,29.07
2018-03-31T09:30:39.004Z,26.57
2018-03-31T09:33:06.794Z,23.33
2018-03-31T09:35:33.982Z,25.83
2018-03-31T09:38:01.650Z,25.43
2018-03-31T09:40:28.674Z,27.50
2018-03-31T09:42:56.012Z,22.03
2018-03-31T09:45:23.382Z,19.50
2018-03-31T09:47:50.470Z,25.37
2018-03-31T09:50:18.333Z,26.97
2018-03-31T09:52:45.371Z,25.60
2018-03-31T09:55:12.392Z,23.87
2018-03-31T09:57:39.431Z,18.87
2018-03-31T10:00:06.434Z,22.60
2018-03-31T10:02:33.690Z,27.67
2018-03-31T10:05:01.517Z,21.17
2018-03-31T10:07:28.733Z,22.80
2018-03-31T10:09:55.853Z,17.03
2018-03-31T10:12:22.911Z,14.27
2018-03-31T10:14:49.956Z,19.23
2018-03-31T10:17:17.747Z,16.37
2018-03-31T10:19:45.168Z,19.30
2018-03-31T10:22:12.238Z,21.20
2018-03-31T10:24:39.235Z,20.53
2018-03-31T10:27:06.282Z,27.33
2018-03-31T10:29:33.305Z,28.90
2018-03-31T10:32:00.364Z,25.20
2018-03-31T10:34:27.461Z,30.00
2018-03-31T10:36:55.128Z,25.87
2018-03-31T10:39:22.924Z,26.20
2018-03-31T10:41:50.028Z,25.20
2018-03-31T10:44:17.054Z,23.07
2018-03-31T10:46:44.061Z,30.07
2018-03-31T10:49:11.082Z,24.47
2018-03-31T10:51:38.919Z,21.67
2018-03-31T10:54:07.142Z,22.37
2018-03-31T10:56:34.715Z,20.10
2018-03-31T10:59:01.858Z,22.97
2018-03-31T11:01:28.888Z,23.20
2018-03-31T11:03:56.016Z,22.07
2018-03-31T11:06:23.083Z,19.57
2018-03-31T11:08:50.100Z,22.30
2018-03-31T11:11:18.846Z,21.17
2018-03-31T11:13:45.878Z,20.17
2018-03-31T11:16:13.412Z,24.93
2018-03-31T11:18:40.439Z,16.63
2018-03-31T11:21:07.443Z,22.90
2018-03-31T11:23:34.447Z,21.47
2018-03-31T11:26:01.501Z,21.47
2018-03-31T11:28:28.552Z,19.00
2018-03-31T11:30:56.359Z,21.27
2018-03-31T11:33:23.428Z,22.17
2018-03-31T11:35:50.456Z,19.03
2018-03-31T11:38:17.457Z,19.77
2018-03-31T11:40:45.332Z,20.77
2018-03-31T11:43:12.335Z,21.93
2018-03-31T11:45:39.669Z,17.73
2018-03-31T11:48:07.152Z,20.73
2018-03-31T11:50:34.231Z,21.83
2018-03-31T11:53:01.301Z,17.33
2018-03-31T11:55:28.386Z,21.40
2018-03-31T11:57:56.096Z,21.00
2018-03-31T12:00:23.151Z,15.77
2018-03-31T12:02:51.537Z,21.37
2018-03-31T12:05:18.576Z,19.57
2018-03-31T12:07:46.347Z,19.23
2018-03-31T12:10:13.429Z,19.70
2018-03-31T12:12:40.664Z,21.67
2018-03-31T12:15:07.732Z,21.27
2018-03-31T12:17:34.957Z,21.03
2018-03-31T12:20:02.165Z,22.83
2018-03-31T12:22:29.165Z,23.03
2018-03-31T12:24:56.279Z,20.30
2018-03-31T12:27:23.321Z,22.30
2018-03-31T12:29:50.381Z,22.70
2018-03-31T12:32:17.399Z,21.73
2018-03-31T12:34:44.480Z,21.60
2018-03-31T12:37:12.252Z,21.37
2018-03-31T12:39:39.565Z,21.30
2018-03-31T12:42:07.515Z,22.30
2018-03-31T12:44:34.610Z,21.30
2018-03-31T12:47:02.359Z,21.13
2018-03-31T12:49:29.461Z,20.83
2018-03-31T12:51:56.886Z,20.67
2018-03-31T12:54:23.934Z,21.03
2018-03-31T12:56:50.961Z,21.20
2018-03-31T12:59:17.964Z,20.77
2018-03-31T13:01:44.976Z,22.13
2018-03-31T13:04:13.218Z,20.07
2018-03-31T13:06:40.644Z,21.27
2018-03-31T13:09:07.678Z,20.47
2018-03-31T13:11:35.125Z,19.83
2018-03-31T13:14:02.173Z,21.97
2018-03-31T13:16:29.176Z,21.27
2018-03-31T13:18:56.203Z,20.53
2018-03-31T13:21:23.242Z,22.30
2018-03-31T13:23:50.399Z,21.70
2018-03-31T13:26:17.433Z,20.50
2018-03-31T13:28:44.486Z,22.73
2018-03-31T13:31:11.553Z,21.87
2018-03-31T13:33:38.582Z,18.87
2018-03-31T13:36:05.622Z,19.67
2018-03-31T13:38:32.755Z,19.97
2018-03-31T13:41:00.546Z,22.70
2018-03-31T13:43:27.627Z,22.43
2018-03-31T13:45:55.311Z,22.87
2018-03-31T13:48:22.610Z,21.83
2018-03-31T13:50:49.723Z,21.33
2018-03-31T13:53:16.738Z,21.13
2018-03-31T13:55:43.761Z,23.00
2018-03-31T13:58:10.904Z,25.13
2018-03-31T14:00:37.963Z,23.30
2018-03-31T14:03:05.316Z,22.07
2018-03-31T14:05:32.371Z,24.77
2018-03-31T14:07:59.590Z,23.93
2018-03-31T14:10:26.748Z,24.90
2018-03-31T14:12:53.791Z,22.73
2018-03-31T14:15:20.832Z,25.50
2018-03-31T14:17:47.865Z,22.70
2018-03-31T14:20:14.911Z,22.03
2018-03-31T14:22:41.956Z,23.13
2018-03-31T14:25:09.800Z,22.37
2018-03-31T14:27:36.861Z,24.70
2018-03-31T14:30:03.877Z,24.13
2018-03-31T14:32:31.628Z,24.73
2018-03-31T14:34:58.647Z,23.57
2018-03-31T14:37:25.765Z,24.73
2018-03-31T14:39:52.789Z,23.63
2018-03-31T14:42:20.453Z,29.30
2018-03-31T14:44:47.491Z,23.83
2018-03-31T14:47:14.838Z,27.43
2018-03-31T14:49:42.029Z,25.47
2018-03-31T14:52:09.838Z,27.00
2018-03-31T14:54:36.870Z,33.60
2018-03-31T14:57:04.163Z,28.93
2018-03-31T14:59:31.286Z,27.83
2018-03-31T15:01:58.458Z,27.27
2018-03-31T15:04:25.537Z,28.70
2018-03-31T15:06:52.579Z,27.53
2018-03-31T15:09:19.728Z,28.17
2018-03-31T15:11:46.767Z,36.10
2018-03-31T15:14:13.771Z,28.40
2018-03-31T15:16:41.640Z,29.17
2018-03-31T15:19:09.635Z,33.90
2018-03-31T15:21:36.634Z,27.17
2018-03-31T15:24:04.137Z,26.53
2018-03-31T15:26:32.002Z,29.03
2018-03-31T15:28:59.059Z,35.50
2018-03-31T15:31:26.091Z,31.97
2018-03-31T15:33:53.162Z,31.37
2018-03-31T15:36:20.403Z,32.73
2018-03-31T15:38:47.626Z,32.77
2018-03-31T15:41:15.622Z,37.40
2018-03-31T15:43:42.686Z,35.67
2018-03-31T15:46:09.736Z,32.57
2018-03-31T15:48:36.992Z,31.23
2018-03-31T15:51:04.229Z,30.13
2018-03-31T15:53:31.281Z,32.93
2018-03-31T15:55:58.449Z,29.97
2018-03-31T15:58:25.908Z,31.23
2018-03-31T16:00:52.991Z,28.77
2018-03-31T16:03:20.794Z,31.73
2018-03-31T16:05:47.931Z,32.87
2018-03-31T16:08:14.954Z,31.80
2018-03-31T16:10:41.977Z,31.03
2018-03-31T16:13:09.263Z,31.73
2018-03-31T16:15:37.074Z,29.03
2018-03-31T16:18:04.149Z,31.13
2018-03-31T16:20:32.018Z,30.60
2018-03-31T16:22:59.035Z,29.93
2018-03-31T16:25:26.754Z,30.73
2018-03-31T16:27:56.232Z,30.87
2018-03-31T16:30:23.530Z,29.83
2018-03-31T16:32:50.566Z,28.17
2018-03-31T16:35:18.695Z,28.33
2018-03-31T16:37:46.185Z,29.03
2018-03-31T16:40:13.205Z,29.60
2018-03-31T16:42:40.322Z,40.80
2018-03-31T16:45:07.352Z,28.17
2018-03-31T16:47:34.503Z,30.30
2018-03-31T16:50:01.625Z,31.27
2018-03-31T16:52:28.668Z,31.97
2018-03-31T16:54:55.812Z,32.23
2018-03-31T16:57:22.882Z,30.57
2018-03-31T16:59:49.948Z,32.07
2018-03-31T17:02:17.035Z,32.23
2018-03-31T17:04:44.087Z,32.80
2018-03-31T17:07:11.190Z,30.67
2018-03-31T17:09:39.286Z,31.13
2018-03-31T17:12:06.458Z,30.20
2018-03-31T17:14:33.608Z,43.10
2018-03-31T17:17:00.656Z,31.10
2018-03-31T17:19:27.657Z,36.93
2018-03-31T17:21:54.820Z,34.10
2018-03-31T17:24:21.979Z,36.63
2018-03-31T17:26:49.130Z,36.43
2018-03-31T17:29:16.152Z,37.70
2018-03-31T17:31:44.148Z,44.87
2018-03-31T17:34:11.205Z,32.23
2018-03-31T17:36:38.237Z,32.37
2018-03-31T17:39:05.299Z,32.23
2018-03-31T17:41:32.784Z,33.70
2018-03-31T17:43:59.821Z,34.83
2018-03-31T17:46:26.925Z,33.60
2018-03-31T17:48:53.996Z,33.90
2018-03-31T17:51:21.598Z,34.20
2018-03-31T17:53:48.801Z,34.47
2018-03-31T17:56:15.872Z,33.70
2018-03-31T17:58:44.079Z,36.60
2018-03-31T18:01:11.415Z,38.77
2018-03-31T18:03:38.449Z,40.20
2018-03-31T18:06:05.701Z,37.43
2018-03-31T18:08:32.727Z,36.87
2018-03-31T18:11:00.022Z,38.10
2018-03-31T18:13:27.051Z,34.70
2018-03-31T18:15:54.112Z,36.10
2018-03-31T18:18:21.173Z,34.60
2018-03-31T18:20:48.265Z,34.70
2018-03-31T18:23:15.725Z,36.83
2018-03-31T18:25:42.905Z,37.43
2018-03-31T18:28:09.980Z,38.57
2018-03-31T18:30:37.907Z,38.00
2018-03-31T18:33:05.050Z,50.33
2018-03-31T18:35:32.177Z,39.30
2018-03-31T18:38:00.039Z,46.70
2018-03-31T18:40:27.759Z,38.57
2018-03-31T18:42:54.825Z,40.50
2018-03-31T18:45:22.649Z,41.07
2018-03-31T18:47:49.700Z,45.13
2018-03-31T18:50:16.947Z,56.33
2018-03-31T18:52:45.050Z,40.03
2018-03-31T18:55:12.109Z,41.33
2018-03-31T18:57:39.841Z,43.13
2018-03-31T19:00:06.883Z,45.13
2018-03-31T19:02:33.931Z,44.30
2018-03-31T19:05:01.006Z,43.67
2018-03-31T19:07:28.079Z,43.53
2018-03-31T19:09:55.208Z,49.60
2018-03-31T19:12:22.363Z,41.33
2018-03-31T19:14:49.394Z,42.27
2018-03-31T19:17:16.445Z,39.97
2018-03-31T19:19:43.490Z,33.27
2018-03-31T19:22:10.590Z,38.23
2018-03-31T19:24:43.312Z,36.17
2018-03-31T19:27:10.363Z,36.10
2018-03-31T19:29:37.659Z,36.00
2018-03-31T19:32:04.856Z,35.70
2018-03-31T19:34:31.949Z,37.30
2018-03-31T19:36:59.004Z,33.40
2018-03-31T19:39:31.796Z,32.63
2018-03-31T19:41:58.838Z,33.67
2018-03-31T19:44:25.878Z,35.30
2018-03-31T19:46:53.830Z,33.60
2018-03-31T19:49:20.836Z,30.70
2018-03-31T19:51:47.968Z,36.13
2018-03-31T19:54:15.896Z,30.37
2018-03-31T19:56:43.028Z,27.40
2018-03-31T19:59:10.049Z,29.03
2018-03-31T20:01:37.174Z,32.67
2018-03-31T20:04:05.009Z,29.73
2018-03-31T20:06:32.151Z,27.50
2018-03-31T20:08:59.218Z,29.73
2018-03-31T20:11:26.380Z,31.47
2018-03-31T20:13:53.397Z,29.47
2018-03-31T20:16:20.558Z,27.33
2018-03-31T20:18:47.602Z,27.77
2018-03-31T20:21:15.868Z,48.80
2018-03-31T20:23:43.808Z,29.00
2018-03-31T20:26:11.016Z,32.92
2018-03-31T20:28:38.060Z,27.27
2018-03-31T20:31:05.097Z,58.23
2018-03-31T20:33:32.237Z,29.77
2018-03-31T20:35:59.308Z,25.40
2018-03-31T20:38:26.507Z,29.20
2018-03-31T20:40:53.571Z,33.80
2018-03-31T20:43:21.558Z,28.60
2018-03-31T20:45:48.649Z,27.73
2018-03-31T20:48:15.737Z,27.57
2018-03-31T20:50:43.194Z,28.13
2018-03-31T20:53:10.255Z,30.23
2018-03-31T20:55:37.365Z,29.77
2018-03-31T20:58:04.406Z,30.47
2018-03-31T21:00:31.623Z,32.43
2018-03-31T21:02:59.108Z,26.77
2018-03-31T21:05:26.939Z,27.77
2018-03-31T21:07:54.202Z,25.90
2018-03-31T21:10:21.455Z,24.83
2018-03-31T21:12:48.534Z,29.47
2018-03-31T21:15:15.646Z,32.10
2018-03-31T21:17:42.682Z,28.13
2018-03-31T21:20:09.769Z,27.97
2018-03-31T21:22:37.074Z,26.33
2018-03-31T21:25:04.672Z,40.30
2018-03-31T21:27:31.905Z,29.33
2018-03-31T21:29:59.136Z,23.97
2018-03-31T21:32:26.218Z,26.00
2018-03-31T21:34:53.799Z,30.73
2018-03-31T21:37:22.239Z,25.97
2018-03-31T21:39:49.364Z,31.10
2018-03-31T21:42:16.533Z,22.20
2018-03-31T21:44:43.580Z,23.87
2018-03-31T21:47:10.686Z,24.00
2018-03-31T21:49:38.539Z,24.30
2018-03-31T21:52:06.143Z,23.57
2018-03-31T21:54:33.975Z,22.67
2018-03-31T21:57:01.032Z,22.87
2018-03-31T21:59:28.269Z,24.70
2018-03-31T22:01:55.675Z,23.43
2018-03-31T22:04:22.841Z,21.97
2018-03-31T22:06:50.102Z,25.67
2018-03-31T22:09:17.197Z,33.23
2018-03-31T22:11:45.024Z,22.67
2018-03-31T22:14:18.370Z,24.40
2018-03-31T22:16:45.410Z,24.53
2018-03-31T22:19:12.437Z,38.83
2018-03-31T22:21:39.723Z,24.40
2018-03-31T22:24:06.770Z,23.60
2018-03-31T22:26:34.145Z,21.33
2018-03-31T22:29:01.152Z,19.90
2018-03-31T22:31:28.238Z,21.30
2018-03-31T22:33:55.338Z,21.10
2018-03-31T22:36:22.404Z,18.70
2018-03-31T22:38:50.244Z,21.53
2018-03-31T22:41:17.358Z,20.90
2018-03-31T22:43:45.173Z,21.47
2018-03-31T22:46:12.166Z,19.27
2018-03-31T22:48:39.236Z,16.30
2018-03-31T22:51:06.285Z,19.20
2018-03-31T22:53:33.321Z,19.93
2018-03-31T22:56:00.335Z,19.67
2018-03-31T22:58:27.583Z,19.17
2018-03-31T23:00:55.063Z,18.77
2018-03-31T23:03:22.160Z,16.60
2018-03-31T23:05:49.965Z,18.60
2018-03-31T23:08:16.993Z,15.63
2018-03-31T23:10:44.800Z,16.23
2018-03-31T23:13:12.044Z,20.67
2018-03-31T23:15:39.078Z,15.03
2018-03-31T23:18:06.087Z,16.43
2018-03-31T23:20:33.127Z,14.57
2018-03-31T23:23:00.736Z,13.77
2018-03-31T23:25:27.752Z,11.97
2018-03-31T23:27:54.837Z,14.03
2018-03-31T23:30:22.136Z,12.83
2018-03-31T23:32:49.191Z,11.60
2018-03-31T23:35:16.248Z,11.07
2018-03-31T23:37:43.562Z,10.47
2018-03-31T23:40:10.676Z,10.17
2018-03-31T23:42:37.720Z,10.80
2018-03-31T23:45:04.768Z,12.07
2018-03-31T23:47:32.567Z,11.23
2018-03-31T23:49:59.710Z,10.40
2018-03-31T23:52:26.756Z,11.60
2018-03-31T23:54:53.782Z,12.10
2018-03-31T23:57:20.862Z,11.47
2018-03-31T23:59:48.033Z,12.27
